Time;durP1;ratioP1;P1;durP2;ratioP2;P2;SDS_P1;SDS_P2;PMS_P1;PMS_P2;Temp;Humidity;BMP_temperature;BMP_pressure;BME280_temperature;BME280_humidity;BME280_pressure;Samples;Min_cycle;Max_cycle;Signal;HPM_P1;HPM_P2
2022/09/10 00:01:44;;;;;;;14.45;12.45;;;;;;;20.43;66.99;99228.22;5031559;28;20034;-72
2022/09/10 00:04:12;;;;;;;20.27;12.32;;;;;;;20.74;65.54;99239.94;5032326;28;20025;-72
2022/09/10 00:06:38;;;;;;;16.48;11.45;;;;;;;20.85;64.98;99239.94;5014605;28;20029;-72
2022/09/10 00:09:05;;;;;;;17.73;12.15;;;;;;;20.60;65.23;99242.81;5031213;28;20044;-72
2022/09/10 00:11:34;;;;;;;20.70;13.32;;;;;;;19.61;68.89;99250.53;5032044;28;20031;-72
2022/09/10 00:14:02;;;;;;;21.23;13.77;;;;;;;19.33;70.67;99256.94;5031955;28;20027;-72
2022/09/10 00:16:28;;;;;;;17.92;13.20;;;;;;;19.02;72.08;99247.91;5027802;28;20037;-72
2022/09/10 00:18:56;;;;;;;16.55;12.88;;;;;;;19.11;72.10;99245.50;5029889;28;20037;-71
2022/09/10 00:21:21;;;;;;;20.92;13.73;;;;;;;19.13;72.02;99247.97;5031325;28;20504;-72
2022/09/10 00:23:47;;;;;;;17.65;12.35;;;;;;;19.06;72.12;99243.03;5012189;28;20037;-72
2022/09/10 00:26:20;;;;;;;15.40;12.75;;;;;;;19.04;72.31;99236.97;5029920;28;20033;-72
2022/09/10 00:28:48;;;;;;;13.75;12.25;;;;;;;19.19;71.54;99240.69;5031224;28;20535;-72
2022/09/10 00:31:14;;;;;;;22.33;13.82;;;;;;;18.73;72.38;99244.91;5028707;28;20072;-72
2022/09/10 00:33:40;;;;;;;17.05;13.43;;;;;;;18.74;72.66;99247.31;5013102;28;20115;-71
2022/09/10 00:36:35;;;;;;;16.95;13.65;;;;;;;18.91;72.20;99257.13;5013511;28;20603;-72
2022/09/10 00:39:06;;;;;;;16.23;12.60;;;;;;;19.32;70.85;99263.81;5027246;28;20046;-72
2022/09/10 00:41:33;;;;;;;20.25;11.80;;;;;;;19.52;69.75;99252.94;5028546;28;20030;-72
2022/09/10 00:44:01;;;;;;;17.45;12.60;;;;;;;19.48;70.11;99264.25;5027669;28;20064;-72
2022/09/10 00:46:42;;;;;;;14.68;13.18;;;;;;;18.69;72.67;99263.88;5031134;28;20087;-72
2022/09/10 00:49:21;;;;;;;19.02;13.30;;;;;;;18.10;75.61;99257.84;5030983;28;20029;-72
2022/09/10 00:51:49;;;;;;;20.23;14.15;;;;;;;17.76;77.44;99245.75;5028713;28;20038;-72
2022/09/10 00:54:19;;;;;;;20.25;16.13;;;;;;;17.74;77.39;99239.69;5012550;28;20057;-72
2022/09/10 00:56:45;;;;;;;16.23;13.88;;;;;;;17.76;77.43;99238.09;5029989;28;20034;-72
2022/09/10 00:59:15;;;;;;;17.20;14.32;;;;;;;17.76;77.80;99246.59;5030875;28;20114;-72
2022/09/10 01:01:41;;;;;;;22.90;15.17;;;;;;;17.81;77.85;99245.41;5012638;28;20013;-72
2022/09/10 01:04:09;;;;;;;18.02;14.90;;;;;;;17.88;77.83;99242.63;5030832;28;20480;-72
2022/09/10 01:06:36;;;;;;;18.92;13.57;;;;;;;18.18;75.88;99257.88;5030964;28;20471;-72
2022/09/10 01:09:03;;;;;;;26.98;13.90;;;;;;;18.34;74.88;99254.75;5030819;28;20022;-72
2022/09/10 01:12:03;;;;;;;17.42;14.13;;;;;;;18.40;74.35;99246.72;5008061;28;20030;-72
2022/09/10 01:15:09;;;;;;;19.63;13.70;;;;;;;18.48;73.69;99245.56;5020383;28;20037;-72
2022/09/10 01:17:48;;;;;;;17.45;12.95;;;;;;;18.89;71.61;99253.88;5002494;28;20041;-72
2022/09/10 01:20:37;;;;;;;18.58;12.82;;;;;;;18.92;71.96;99247.41;5030737;28;20080;-72
2022/09/10 01:23:40;;;;;;;16.23;13.05;;;;;;;19.08;71.34;99249.16;5029756;28;20435;-72
2022/09/10 01:26:30;;;;;;;19.65;13.00;;;;;;;19.33;70.19;99246.38;5029478;28;20128;-71
2022/09/10 01:28:55;;;;;;;;;;;;;;;19.41;70.08;99241.53;4994699;28;20029;-72
2022/09/10 01:31:31;;;;;;;16.97;12.87;;;;;;;18.93;72.30;99239.72;5010941;28;19921;-72
2022/09/10 01:34:15;;;;;;;20.98;14.88;;;;;;;18.50;74.38;99246.78;5012110;28;20404;-72
2022/09/10 01:36:46;;;;;;;24.98;13.38;;;;;;;18.72;73.99;99248.94;5018897;28;20063;-72
2022/09/10 01:39:15;;;;;;;22.05;14.38;;;;;;;18.69;73.71;99238.38;5033540;28;20496;-72
2022/09/10 01:41:40;;;;;;;17.85;13.68;;;;;;;18.92;73.20;99253.06;5032930;28;20029;-71
2022/09/10 01:44:30;;;;;;;18.40;13.30;;;;;;;19.16;71.93;99242.28;5033276;28;20113;-72
2022/09/10 01:47:08;;;;;;;20.85;13.25;;;;;;;19.45;70.48;99236.72;5028689;28;20052;-72
2022/09/10 01:49:59;;;;;;;16.50;12.93;;;;;;;19.60;69.69;99242.41;5033521;28;20025;-71
2022/09/10 01:52:50;;;;;;;20.67;12.90;;;;;;;19.64;69.52;99240.38;5015135;28;20040;-72
2022/09/10 01:55:37;;;;;;;18.60;13.32;;;;;;;19.75;68.96;99237.56;5030860;28;20032;-72
2022/09/10 01:58:32;;;;;;;16.92;13.70;;;;;;;19.83;68.25;99227.03;5034051;28;20100;-72
2022/09/10 02:01:03;;;;;;;18.70;13.30;;;;;;;19.54;69.16;99232.66;5021151;28;20045;-72
2022/09/10 02:03:31;;;;;;;18.02;13.38;;;;;;;19.13;70.83;99226.06;5014016;28;20036;-72
2022/09/10 02:05:59;;;;;;;17.17;14.27;;;;;;;18.60;72.74;99233.09;5012856;28;20040;-72
2022/09/10 02:08:32;;;;;;;19.77;15.07;;;;;;;17.89;76.17;99234.97;5031837;28;20087;-71
2022/09/10 02:11:00;;;;;;;20.67;15.23;;;;;;;17.70;77.93;99233.19;5032353;28;20079;-72
2022/09/10 02:13:29;;;;;;;20.60;15.48;;;;;;;17.85;77.92;99228.47;5032489;28;20036;-72
2022/09/10 02:15:55;;;;;;;20.00;14.38;;;;;;;17.89;77.16;99234.97;5014894;28;20033;-72
2022/09/10 02:18:22;;;;;;;28.48;14.90;;;;;;;17.99;76.76;99242.75;5033705;28;20032;-72
2022/09/10 02:20:51;;;;;;;28.73;14.48;;;;;;;17.92;77.04;99245.50;5031482;28;20514;-72
2022/09/10 02:23:21;;;;;;;16.45;14.43;;;;;;;18.02;76.50;99221.31;5032502;28;20026;-71
2022/09/10 02:25:48;;;;;;;17.67;13.32;;;;;;;18.17;76.04;99242.09;5032868;28;20169;-71
2022/09/10 02:28:14;;;;;;;17.40;13.40;;;;;;;18.35;75.31;99234.56;5033514;28;20047;-72
2022/09/10 02:30:39;;;;;;;17.45;13.30;;;;;;;18.65;73.38;99233.53;5033700;28;20022;-72
2022/09/10 02:33:05;;;;;;;17.02;13.55;;;;;;;18.74;73.15;99235.19;5031303;28;20024;-72
2022/09/10 02:35:30;;;;;;;16.90;12.57;;;;;;;18.80;72.46;99230.75;5023444;28;20103;-71
2022/09/10 02:37:57;;;;;;;26.45;15.02;;;;;;;18.80;72.29;99236.41;5027486;28;20029;-71
2022/09/10 02:40:23;;;;;;;23.25;13.45;;;;;;;18.66;72.52;99248.50;5022033;28;20104;-72
2022/09/10 02:42:49;;;;;;;20.25;14.20;;;;;;;18.30;74.12;99254.72;5010636;28;20068;-72
2022/09/10 02:45:15;;;;;;;17.75;13.30;;;;;;;17.93;75.43;99258.44;5008543;28;20124;-72
2022/09/10 02:47:40;;;;;;;20.95;14.35;;;;;;;17.58;76.99;99262.56;5019310;28;20462;-71
2022/09/10 02:50:07;;;;;;;18.50;15.27;;;;;;;17.28;78.28;99263.44;5030005;28;20030;-72
2022/09/10 02:52:33;;;;;;;25.48;15.40;;;;;;;17.01;79.38;99258.69;5025490;28;20017;-72
2022/09/10 02:54:59;;;;;;;20.73;14.40;;;;;;;16.82;80.29;99256.78;5009268;28;20028;-71
2022/09/10 02:57:25;;;;;;;16.65;14.88;;;;;;;16.82;80.41;99257.59;5008394;28;20033;-71
2022/09/10 02:59:52;;;;;;;16.38;14.57;;;;;;;16.69;81.39;99256.19;5023276;28;20052;-71
2022/09/10 03:02:19;;;;;;;17.92;15.48;;;;;;;16.70;81.89;99252.19;5018165;28;20021;-72
2022/09/10 03:04:44;;;;;;;19.15;14.20;;;;;;;16.64;82.59;99254.53;5023363;28;20697;-72
2022/09/10 03:07:10;;;;;;;18.65;16.17;;;;;;;16.59;82.77;99254.88;5027543;28;20030;-71
2022/09/10 03:09:36;;;;;;;23.52;15.93;;;;;;;16.53;83.32;99251.56;5011006;28;20039;-72
2022/09/10 03:12:01;;;;;;;24.55;17.27;;;;;;;16.54;83.48;99252.38;5012761;28;20076;-72
2022/09/10 03:14:29;;;;;;;27.10;15.65;;;;;;;16.51;83.59;99250.31;5012906;28;20066;-72
2022/09/10 03:16:55;;;;;;;24.58;16.17;;;;;;;16.44;84.33;99250.22;5018117;28;20032;-72
2022/09/10 03:19:21;;;;;;;24.35;17.17;;;;;;;16.37;84.93;99257.38;5031507;28;20029;-72
2022/09/10 03:21:46;;;;;;;22.25;18.23;;;;;;;16.44;84.64;99253.03;5032454;28;20075;-72
2022/09/10 03:24:12;;;;;;;19.35;16.60;;;;;;;16.48;84.71;99249.06;5032511;28;20017;-72
2022/09/10 03:26:37;;;;;;;29.08;17.08;;;;;;;16.64;83.96;99243.22;5030978;28;20053;-72
2022/09/10 03:29:03;;;;;;;19.55;15.35;;;;;;;16.72;83.67;99240.50;5031740;28;20084;-72
2022/09/10 03:31:29;;;;;;;20.63;15.70;;;;;;;16.62;83.80;99242.00;5032137;28;20034;-72
2022/09/10 03:33:56;;;;;;;19.42;16.13;;;;;;;16.56;84.61;99247.16;5031250;28;20026;-72
2022/09/10 03:36:22;;;;;;;40.65;17.33;;;;;;;16.70;83.85;99252.19;5032178;28;20017;-72
2022/09/10 03:38:47;;;;;;;21.90;16.58;;;;;;;16.58;84.70;99246.75;5032095;28;20083;-72
2022/09/10 03:41:13;;;;;;;20.33;16.42;;;;;;;16.76;84.07;99253.50;5031251;28;20029;-72
2022/09/10 03:43:41;;;;;;;20.55;14.63;;;;;;;17.07;82.46;99245.81;5027441;28;20044;-72
2022/09/10 03:46:07;;;;;;;20.67;14.98;;;;;;;17.38;80.35;99257.09;5031736;28;20265;-72
2022/09/10 03:48:33;;;;;;;20.77;15.13;;;;;;;17.51;79.74;99257.63;5014120;28;20024;-72
2022/09/10 03:50:58;;;;;;;21.13;14.40;;;;;;;17.71;78.31;99258.25;5031551;28;20036;-72
2022/09/10 03:53:24;;;;;;;24.60;13.88;;;;;;;17.89;76.98;99252.75;5013428;28;20127;-71
2022/09/10 03:55:50;;;;;;;18.08;14.77;;;;;;;17.42;79.18;99266.44;5030624;28;20080;-72
2022/09/10 03:58:18;;;;;;;26.38;16.70;;;;;;;17.35;79.68;99263.50;5030997;28;20021;-74
2022/09/10 04:00:44;;;;;;;24.10;16.38;;;;;;;16.97;81.39;99252.94;5028182;28;20086;-72
2022/09/10 04:03:10;;;;;;;20.58;16.63;;;;;;;17.15;81.33;99252.41;5028288;28;20025;-72
2022/09/10 04:05:39;;;;;;;18.08;15.93;;;;;;;17.20;80.69;99260.53;5026187;28;20558;-72
2022/09/10 04:08:06;;;;;;;27.60;15.45;;;;;;;17.42;80.02;99257.94;5031233;28;20026;-73
2022/09/10 04:10:32;;;;;;;21.42;17.30;;;;;;;17.34;80.04;99273.19;5030407;28;20028;-72
2022/09/10 04:12:57;;;;;;;17.02;15.07;;;;;;;17.24;80.82;99280.34;5023167;28;20017;-71
2022/09/10 04:15:23;;;;;;;23.65;15.45;;;;;;;17.42;80.20;99272.09;5029146;28;20033;-72
2022/09/10 04:17:53;;;;;;;21.42;15.13;;;;;;;17.44;80.16;99272.50;5012876;28;20047;-72
2022/09/10 04:20:23;;;;;;;20.17;16.33;;;;;;;17.53;79.75;99264.53;5007461;28;20108;-72
2022/09/10 04:22:52;;;;;;;16.70;14.27;;;;;;;17.57;80.15;99258.09;5013601;28;20026;-72
2022/09/10 04:25:18;;;;;;;18.17;15.50;;;;;;;17.61;79.53;99248.47;5031334;28;20053;-71
2022/09/10 04:27:44;;;;;;;26.33;17.15;;;;;;;17.44;80.22;99247.06;5011037;28;20026;-71
2022/09/10 04:30:11;;;;;;;30.05;17.52;;;;;;;17.17;82.47;99258.47;5030411;28;20469;-72
2022/09/10 04:32:36;;;;;;;21.85;16.67;;;;;;;17.22;82.10;99249.66;5029409;28;20029;-71
2022/09/10 04:35:02;;;;;;;26.38;15.60;;;;;;;16.97;83.25;99243.69;5018922;28;20087;-72
2022/09/10 04:37:29;;;;;;;21.65;15.95;;;;;;;17.14;83.30;99238.66;5030540;28;20064;-73
2022/09/10 04:39:55;;;;;;;18.85;15.65;;;;;;;17.48;81.61;99245.09;5031301;28;20032;-73
2022/09/10 04:42:20;;;;;;;35.35;17.42;;;;;;;17.79;79.90;99242.97;5030510;28;20053;-72
2022/09/10 04:44:46;;;;;;;22.45;14.93;;;;;;;17.99;78.59;99251.25;5031592;28;20484;-72
2022/09/10 04:47:12;;;;;;;24.20;14.82;;;;;;;18.21;77.80;99255.06;5031668;28;20083;-72
2022/09/10 04:49:37;;;;;;;26.20;15.20;;;;;;;18.25;77.44;99257.94;5029129;28;20034;-71
2022/09/10 04:52:03;;;;;;;23.73;14.90;;;;;;;18.27;76.52;99266.03;5031276;28;20028;-72
2022/09/10 04:54:28;;;;;;;16.52;14.55;;;;;;;18.32;76.99;99269.31;5031619;28;20108;-70
2022/09/10 04:56:54;;;;;;;23.10;16.13;;;;;;;18.06;78.20;99273.16;5013460;28;20029;-71
2022/09/10 04:59:20;;;;;;;15.70;14.05;;;;;;;18.10;78.19;99257.84;5031336;28;20074;-72
2022/09/10 05:01:49;;;;;;;16.63;14.70;;;;;;;17.91;79.45;99255.19;5030108;28;20038;-73
2022/09/10 05:04:14;;;;;;;16.67;13.18;;;;;;;18.20;78.71;99247.78;5024550;28;20418;-72
2022/09/10 05:06:40;;;;;;;17.00;13.50;;;;;;;18.50;77.77;99248.81;5011506;28;20032;-72
2022/09/10 05:09:06;;;;;;;15.98;12.68;;;;;;;18.83;77.08;99251.81;5014563;28;20036;-72
2022/09/10 05:11:32;;;;;;;18.35;14.18;;;;;;;18.44;76.32;99265.34;5017109;28;20039;-71
2022/09/10 05:13:57;;;;;;;26.48;13.82;;;;;;;18.60;76.54;99259.41;5034040;28;20053;-72
2022/09/10 05:16:23;;;;;;;18.27;13.98;;;;;;;18.60;76.80;99262.22;5016195;28;20036;-72
2022/09/10 05:18:48;;;;;;;18.33;13.18;;;;;;;18.65;77.24;99264.69;5034118;28;20033;-72
2022/09/10 05:21:14;;;;;;;18.40;14.30;;;;;;;18.67;76.76;99261.47;5030746;28;20029;-72
2022/09/10 05:23:40;;;;;;;14.95;12.93;;;;;;;18.50;77.75;99271.47;5033837;28;20059;-72
2022/09/10 05:26:07;;;;;;;16.13;13.40;;;;;;;18.61;77.00;99280.84;5016838;28;20544;-72
2022/09/10 05:28:32;;;;;;;20.20;15.52;;;;;;;18.82;76.64;99279.31;5034396;28;20037;-73
2022/09/10 05:30:58;;;;;;;19.38;13.85;;;;;;;19.00;75.00;99276.63;5033847;28;20075;-71
2022/09/10 05:33:23;;;;;;;17.38;13.52;;;;;;;19.09;75.16;99276.28;5016946;28;20025;-72
2022/09/10 05:35:51;;;;;;;16.75;12.50;;;;;;;19.37;74.32;99263.41;5032600;28;20025;-72
2022/09/10 05:38:17;;;;;;;16.98;12.63;;;;;;;19.49;72.95;99270.75;5028686;28;20030;-72
2022/09/10 05:40:43;;;;;;;18.67;14.07;;;;;;;19.14;74.30;99275.09;5031524;28;20033;-72
2022/09/10 05:43:10;;;;;;;22.55;14.07;;;;;;;19.40;73.51;99268.28;5033621;28;20038;-71
2022/09/10 05:45:36;;;;;;;30.38;17.55;;;;;;;19.69;73.45;99268.38;5013146;28;20053;-71
2022/09/10 05:48:02;;;;;;;22.85;17.63;;;;;;;19.80;71.56;99270.41;5024074;28;20025;-73
2022/09/10 05:50:29;;;;;;;44.15;21.02;;;;;;;19.84;71.24;99268.38;5032092;28;20106;-72
2022/09/10 05:52:55;;;;;;;21.48;18.10;;;;;;;19.75;71.12;99271.63;5034095;28;20042;-70
2022/09/10 05:55:21;;;;;;;22.88;18.85;;;;;;;19.87;70.82;99261.88;5016742;28;20021;-74
2022/09/10 05:57:47;;;;;;;30.08;22.42;;;;;;;20.15;70.35;99266.81;5015180;28;20389;-72
2022/09/10 06:00:14;;;;;;;22.65;19.80;;;;;;;20.28;69.17;99272.91;5033566;28;20056;-74
2022/09/10 06:02:40;;;;;;;30.52;17.23;;;;;;;20.25;69.17;99264.38;5016230;28;20031;-72
2022/09/10 06:05:06;;;;;;;19.02;15.93;;;;;;;20.26;69.76;99272.47;5032973;28;20515;-69
2022/09/10 06:07:31;;;;;;;27.05;18.60;;;;;;;20.17;69.57;99263.56;5014527;28;20083;-72
2022/09/10 06:09:57;;;;;;;27.35;17.80;;;;;;;20.42;68.30;99262.75;5032778;28;20033;-71
2022/09/10 06:12:23;;;;;;;28.50;17.45;;;;;;;20.32;68.74;99268.03;5026440;28;20029;-73
2022/09/10 06:14:48;;;;;;;26.60;18.60;;;;;;;20.38;68.48;99274.09;5033663;28;20109;-73
2022/09/10 06:17:17;;;;;;;27.20;15.88;;;;;;;20.49;68.47;99282.59;5033157;28;20029;-73
2022/09/10 06:19:43;;;;;;;46.85;19.27;;;;;;;20.55;68.05;99271.63;5014601;28;20036;-73
2022/09/10 06:22:10;;;;;;;26.90;16.67;;;;;;;20.80;67.78;99277.28;5033410;28;20465;-74
2022/09/10 06:24:36;;;;;;;18.67;15.85;;;;;;;20.78;67.88;99276.88;5031726;28;20159;-74
2022/09/10 06:27:02;;;;;;;22.40;15.43;;;;;;;20.78;67.43;99268.34;5033409;28;20530;-74
2022/09/10 06:29:28;;;;;;;26.85;13.60;;;;;;;20.86;67.03;99267.13;5032729;28;20116;-74
2022/09/10 06:31:54;;;;;;;22.02;14.52;;;;;;;20.94;67.03;99262.25;5015417;28;20063;-74
2022/09/10 06:34:19;;;;;;;18.30;13.95;;;;;;;20.86;66.33;99252.91;5032941;28;20452;-74
2022/09/10 06:36:49;;;;;;;20.55;12.82;;;;;;;20.98;66.06;99250.84;5029444;28;20366;-73
2022/09/10 06:39:15;;;;;;;20.92;12.32;;;;;;;20.85;66.24;99248.47;5032286;28;20069;-73
2022/09/10 06:41:42;;;;;;;23.17;13.35;;;;;;;21.18;65.85;99257.69;5014401;28;20056;-72
2022/09/10 06:44:11;;;;;;;18.80;12.68;;;;;;;20.96;66.38;99253.28;5032460;28;20408;-73
2022/09/10 06:46:37;;;;;;;22.13;13.80;;;;;;;21.26;66.00;99251.97;5031489;28;20025;-73
2022/09/10 06:49:05;;;;;;;25.55;12.68;;;;;;;21.06;65.10;99258.13;5014488;28;20029;-73
2022/09/10 06:51:34;;;;;;;47.72;14.48;;;;;;;21.53;64.73;99245.72;5031646;28;20045;-73
2022/09/10 06:54:00;;;;;;;16.00;10.68;;;;;;;21.43;64.23;99242.50;5012783;28;20408;-73
2022/09/10 06:56:26;;;;;;;18.33;11.20;;;;;;;21.28;64.10;99247.47;5014428;28;20021;-75
2022/09/10 06:58:51;;;;;;;13.13;10.98;;;;;;;21.32;64.04;99247.44;5031374;28;20026;-75
2022/09/10 07:01:19;;;;;;;18.42;11.30;;;;;;;21.72;63.23;99248.06;5028738;28;20030;-76
2022/09/10 07:03:46;;;;;;;14.88;9.85;;;;;;;21.94;62.15;99255.66;5011496;28;20064;-73
2022/09/10 07:06:16;;;;;;;14.98;11.70;;;;;;;22.08;61.65;99261.22;5014779;28;20124;-74
2022/09/10 07:08:43;;;;;;;15.52;12.60;;;;;;;22.02;61.98;99269.41;5031476;28;20029;-75
2022/09/10 07:11:13;;;;;;;16.00;11.68;;;;;;;22.15;62.07;99288.81;5030792;28;20094;-73
2022/09/10 07:13:39;;;;;;;26.27;12.77;;;;;;;22.38;61.40;99282.53;5031390;28;20087;-74
2022/09/10 07:16:05;;;;;;;22.88;13.30;;;;;;;22.47;61.56;99279.19;5028419;28;20033;-75
2022/09/10 07:18:32;;;;;;;16.27;13.57;;;;;;;22.52;61.72;99273.06;5030603;28;20063;-78
2022/09/10 07:21:14;;;;;;;18.90;12.88;;;;;;;22.73;61.28;99282.63;5032393;28;20033;-78
2022/09/10 07:23:40;;;;;;;23.92;12.13;;;;;;;22.83;60.87;99280.91;5032548;28;20029;-73
2022/09/10 07:26:11;;;;;;;22.13;12.98;;;;;;;23.25;59.70;99273.09;5032605;28;20385;-75
2022/09/10 07:28:38;;;;;;;21.30;11.98;;;;;;;23.33;59.63;99270.16;5032358;28;20029;-73
2022/09/10 07:31:16;;;;;;;21.58;14.05;;;;;;;23.49;58.93;99260.97;5029747;28;20405;-73
2022/09/10 07:33:42;;;;;;;21.52;12.43;;;;;;;23.79;57.58;99259.34;5030919;28;20504;-72
2022/09/10 07:36:08;;;;;;;17.17;12.57;;;;;;;23.88;58.81;99248.16;5031224;28;20117;-71
2022/09/10 07:38:38;;;;;;;18.00;11.38;;;;;;;24.12;57.01;99256.78;5032287;28;20032;-72
2022/09/10 07:41:05;;;;;;;15.65;12.65;;;;;;;24.29;57.26;99256.94;5030866;28;20060;-74
2022/09/10 07:43:31;;;;;;;19.48;13.63;;;;;;;24.25;55.41;99257.81;5028328;28;20051;-74
2022/09/10 07:45:56;;;;;;;16.23;9.80;;;;;;;24.31;55.41;99255.22;5014462;28;20116;-77
2022/09/10 07:48:22;;;;;;;16.23;11.07;;;;;;;24.34;55.83;99253.56;5032112;28;20025;-75
2022/09/10 07:50:47;;;;;;;21.30;12.00;;;;;;;24.24;55.49;99256.16;5030781;28;20029;-75
2022/09/10 07:53:13;;;;;;;19.45;10.57;;;;;;;24.19;54.70;99256.66;5031927;28;20065;-74
2022/09/10 07:55:39;;;;;;;21.02;11.98;;;;;;;24.21;55.29;99268.47;5031924;28;20104;-73
2022/09/10 07:58:05;;;;;;;16.88;12.20;;;;;;;24.04;55.32;99266.72;5032045;28;20112;-72
2022/09/10 08:00:31;;;;;;;16.55;10.73;;;;;;;24.40;55.18;99254.69;5028763;28;20061;-73
2022/09/10 08:02:56;;;;;;;13.18;9.98;;;;;;;24.58;53.97;99267.84;5030580;28;20455;-73
2022/09/10 08:05:22;;;;;;;82.22;73.35;;;;;;;24.52;56.65;99267.53;5013954;28;20028;-72
2022/09/10 08:07:50;;;;;;;15.95;11.73;;;;;;;24.72;54.61;99261.84;5031729;28;20018;-73
2022/09/10 08:10:16;;;;;;;21.92;14.57;;;;;;;24.18;54.48;99263.63;5031604;28;20029;-72
2022/09/10 08:12:42;;;;;;;14.43;10.57;;;;;;;24.40;55.07;99263.25;5031598;28;20052;-72
2022/09/10 08:15:09;;;;;;;13.50;10.70;;;;;;;24.80;54.20;99263.38;5021787;28;20034;-73
2022/09/10 08:17:38;;;;;;;17.77;10.35;;;;;;;24.86;53.45;99260.81;5010901;28;20564;-72
2022/09/10 08:20:06;;;;;;;21.83;10.90;;;;;;;24.93;53.24;99271.28;5011644;28;20029;-72
2022/09/10 08:22:31;;;;;;;15.73;10.63;;;;;;;24.33;53.43;99274.81;5010515;28;20018;-73
2022/09/10 08:24:57;;;;;;;21.23;11.57;;;;;;;24.83;53.72;99280.88;5011646;28;20092;-72
2022/09/10 08:27:23;;;;;;;30.73;12.70;;;;;;;24.99;53.58;99278.13;5011682;28;20060;-73
2022/09/10 08:29:48;;;;;;;29.65;10.60;;;;;;;24.97;52.40;99269.16;5019527;28;20104;-72
2022/09/10 08:32:14;;;;;;;15.90;9.80;;;;;;;25.01;51.57;99261.34;5013577;28;20033;-73
2022/09/10 08:34:41;;;;;;;18.65;9.18;;;;;;;24.80;51.68;99257.66;5013850;28;20123;-72
2022/09/10 08:37:06;;;;;;;12.93;9.45;;;;;;;24.71;51.68;99260.22;5031305;28;20029;-72
2022/09/10 08:39:32;;;;;;;13.00;8.77;;;;;;;24.38;53.07;99248.59;5031224;28;20033;-73
2022/09/10 08:42:03;;;;;;;13.48;9.35;;;;;;;24.17;52.95;99244.06;5029664;28;20017;-72
2022/09/10 08:44:47;;;;;;;17.15;10.07;;;;;;;24.38;53.78;99240.81;5012004;28;20124;-72
2022/09/10 08:47:23;;;;;;;13.68;9.40;;;;;;;24.59;52.14;99233.09;5013515;28;20072;-73
2022/09/10 08:49:59;;;;;;;19.33;9.52;;;;;;;24.88;51.87;99238.28;5031270;28;20026;-75
2022/09/10 08:52:52;;;;;;;14.63;8.65;;;;;;;24.90;50.58;99232.13;5013452;28;20036;-76
2022/09/10 08:55:20;;;;;;;14.60;9.00;;;;;;;24.90;50.07;99227.22;5027771;28;20037;-76
2022/09/10 08:57:58;;;;;;;10.40;9.38;;;;;;;25.06;50.59;99228.53;5029690;28;20025;-73
2022/09/10 09:00:27;;;;;;;14.88;8.57;;;;;;;25.43;50.04;99219.97;5030961;28;20489;-73
2022/09/10 09:03:13;;;;;;;11.10;9.38;;;;;;;25.73;49.23;99218.09;5030577;28;20017;-73
2022/09/10 09:05:59;;;;;;;21.80;10.20;;;;;;;25.85;47.52;99213.72;5031532;28;20048;-73
2022/09/10 09:08:29;;;;;;;14.95;9.70;;;;;;;26.10;47.94;99218.81;5013684;28;20026;-73
2022/09/10 09:11:32;;;;;;;19.30;8.45;;;;;;;26.28;46.79;99208.97;5029592;28;20045;-73
2022/09/10 09:14:25;;;;;;;11.93;8.80;;;;;;;26.40;46.67;99195.97;5031027;28;20056;-73
2022/09/10 09:16:53;;;;;;;13.45;8.65;;;;;;;26.69;45.92;99201.72;5029798;28;20086;-74
2022/09/10 09:19:51;;;;;;;11.93;8.38;;;;;;;26.67;46.11;99201.38;5030861;28;20565;-73
2022/09/10 09:22:30;;;;;;;13.15;9.80;;;;;;;26.90;45.84;99191.72;5030753;28;20479;-73
2022/09/10 09:25:04;;;;;;;15.93;9.18;;;;;;;26.95;44.60;99178.88;5030133;28;20439;-73
2022/09/10 09:27:35;;;;;;;14.48;8.80;;;;;;;27.22;44.06;99179.75;5030985;28;20021;-73
2022/09/10 09:30:03;;;;;;;12.55;8.50;;;;;;;26.93;44.53;99177.72;5008211;28;20041;-73
2022/09/10 09:32:33;;;;;;;21.20;8.40;;;;;;;27.14;44.10;99164.78;5005775;28;20037;-73
2022/09/10 09:35:11;;;;;;;;;;;;;;;27.24;43.90;99163.66;5017596;28;20029;-73
2022/09/10 09:37:40;;;;;;;9.80;7.78;;;;;;;27.24;43.89;99155.03;5029236;28;19909;-73
2022/09/10 09:40:05;;;;;;;11.68;8.15;;;;;;;27.23;44.45;99141.94;5007735;28;20515;-72
2022/09/10 09:42:39;;;;;;;16.67;7.78;;;;;;;27.40;43.97;99134.03;5030087;28;20038;-73
2022/09/10 09:45:19;;;;;;;13.05;7.80;;;;;;;27.52;43.79;99141.06;5030728;28;20022;-73
2022/09/10 09:47:45;;;;;;;15.68;8.30;;;;;;;27.51;43.74;99132.88;5030589;28;20025;-73
2022/09/10 09:50:12;;;;;;;17.23;9.23;;;;;;;27.78;43.61;99123.81;5030635;28;20084;-73
2022/09/10 09:52:40;;;;;;;16.90;8.65;;;;;;;27.81;43.03;99116.31;5012684;28;20045;-73
2022/09/10 09:55:20;;;;;;;8.88;7.00;;;;;;;27.86;41.09;99125.16;5030835;28;20021;-73
2022/09/10 09:57:46;;;;;;;9.65;7.20;;;;;;;28.00;40.91;99123.88;5034157;28;20488;-73
2022/09/10 10:00:35;;;;;;;13.13;7.57;;;;;;;28.08;42.21;99133.03;5033071;28;20041;-73
2022/09/10 10:03:17;;;;;;;16.63;8.80;;;;;;;27.70;42.27;99131.06;5016161;28;20111;-73
2022/09/10 10:05:43;;;;;;;11.48;8.25;;;;;;;27.57;43.60;99123.25;5033028;28;20494;-72
2022/09/10 10:08:27;;;;;;;351.40;305.42;;;;;;;27.78;43.67;99112.31;5033939;28;20492;-73
2022/09/10 10:10:52;;;;;;;26.67;21.30;;;;;;;28.19;42.48;99111.75;5033894;28;20107;-72
2022/09/10 10:13:22;;;;;;;52.97;43.65;;;;;;;28.27;42.36;99107.38;5012255;28;20072;-73
2022/09/10 10:15:47;;;;;;;49.00;43.90;;;;;;;28.28;42.49;99108.97;5014091;28;20036;-76
2022/09/10 10:18:22;;;;;;;43.25;38.65;;;;;;;28.08;41.58;99103.50;5013997;28;20041;-72
2022/09/10 10:20:49;;;;;;;30.50;22.80;;;;;;;28.17;42.59;99113.03;5010313;28;20120;-73
2022/09/10 10:23:42;;;;;;;17.80;15.88;;;;;;;28.17;41.43;99097.81;5014572;28;20099;-72
2022/09/10 10:26:19;;;;;;;384.23;51.08;;;;;;;28.25;41.79;99104.16;5027838;28;20044;-72
2022/09/10 10:29:18;;;;;;;13.02;8.88;;;;;;;28.25;42.79;99096.31;5033232;28;20470;-73
2022/09/10 10:31:46;;;;;;;16.95;10.13;;;;;;;28.22;42.23;99088.66;5032122;28;20030;-73
2022/09/10 10:34:14;;;;;;;24.10;19.92;;;;;;;28.40;42.04;99087.97;5019458;28;20040;-74
2022/09/10 10:37:15;;;;;;;20.17;13.07;;;;;;;28.43;43.24;99081.28;4997333;28;20036;-73
2022/09/10 10:40:08;;;;;;;15.65;9.60;;;;;;;28.38;41.87;99081.91;5018273;28;20041;-73
2022/09/10 10:42:52;;;;;;;10.23;8.75;;;;;;;28.17;41.87;99084.28;5010881;28;20111;-72
2022/09/10 10:45:38;;;;;;;13.40;8.10;;;;;;;28.26;41.86;99074.16;5014797;28;20030;-71
2022/09/10 10:48:24;;;;;;;20.52;10.00;;;;;;;28.53;42.74;99066.97;5011119;28;20021;-73
2022/09/10 10:51:02;;;;;;;19.77;9.05;;;;;;;28.39;42.23;99066.25;5029443;28;20029;-69
2022/09/10 10:53:43;;;;;;;319.10;168.32;;;;;;;28.73;42.27;99058.81;5028675;28;20487;-73
2022/09/10 10:56:18;;;;;;;21.05;15.15;;;;;;;28.58;42.36;99051.97;5028855;28;20224;-73
2022/09/10 10:59:05;;;;;;;16.75;11.00;;;;;;;29.04;41.73;99056.41;5007426;28;20108;-73
2022/09/10 11:01:38;;;;;;;24.60;13.52;;;;;;;29.33;41.45;99058.13;5014004;28;20021;-72
2022/09/10 11:04:25;;;;;;;14.55;9.85;;;;;;;29.63;41.45;99061.41;5025969;28;20152;-72
2022/09/10 11:07:00;;;;;;;14.93;10.40;;;;;;;29.53;40.00;99060.59;5027376;28;20104;-72
2022/09/10 11:09:41;;;;;;;67.70;60.53;;;;;;;29.57;39.94;99058.38;5011559;28;20455;-73
2022/09/10 11:12:25;;;;;;;20.88;13.80;;;;;;;29.78;39.99;99042.22;5013402;28;20108;-72
2022/09/10 11:15:00;;;;;;;23.63;18.35;;;;;;;29.90;38.95;99043.38;5031017;28;20076;-72
2022/09/10 11:17:46;;;;;;;15.40;10.20;;;;;;;29.96;38.66;99046.41;5032296;28;20492;-73
2022/09/10 11:20:22;;;;;;;17.80;9.75;;;;;;;29.77;38.63;99034.88;5032488;28;20048;-73
2022/09/10 11:23:06;;;;;;;14.75;9.65;;;;;;;29.66;40.04;99011.47;4996823;28;20370;-73
2022/09/10 11:25:53;;;;;;;16.55;9.30;;;;;;;29.25;40.13;99026.75;5032267;28;20413;-73
2022/09/10 11:28:25;;;;;;;74.75;63.72;;;;;;;29.17;40.51;99013.91;5032711;28;20024;-73
2022/09/10 11:31:02;;;;;;;94.05;73.78;;;;;;;29.42;41.10;99023.56;5014650;28;20059;-73
2022/09/10 11:33:53;;;;;;;62.50;45.85;;;;;;;29.86;39.87;99018.88;5014117;28;20032;-72
2022/09/10 11:36:31;;;;;;;32.58;22.40;;;;;;;29.84;39.17;99005.75;5024603;28;20032;-72